createdAt,value
2023-01-29T00:00:06.907Z,85.23
2023-01-29T00:01:12.282Z,84.40
2023-01-29T00:01:52.024Z,84.90
2023-01-29T00:02:38.900Z,84.48
2023-01-29T00:03:32.921Z,84.13
2023-01-29T00:04:26.867Z,84.49
2023-01-29T00:05:28.015Z,84.37
2023-01-29T00:06:22.890Z,84.44
2023-01-29T00:07:16.901Z,84.41
2023-01-29T00:08:04.939Z,83.87
2023-01-29T00:08:44.010Z,83.83
2023-01-29T00:09:30.866Z,84.16
2023-01-29T00:10:04.948Z,84.27
2023-01-29T00:10:51.845Z,84.28
2023-01-29T00:11:25.934Z,84.51
2023-01-29T00:12:15.891Z,84.66
2023-01-29T00:12:50.082Z,84.56
2023-01-29T00:13:29.866Z,84.86
2023-01-29T00:14:10.014Z,84.33
2023-01-29T00:14:49.857Z,85.11
2023-01-29T00:15:29.925Z,84.16
2023-01-29T00:16:10.866Z,84.49
2023-01-29T00:16:50.992Z,84.44
2023-01-29T00:17:31.877Z,84.92
2023-01-29T00:18:11.917Z,84.84
2023-01-29T00:18:51.903Z,84.65
2023-01-29T00:19:31.914Z,84.32
2023-01-29T00:20:12.847Z,84.55
2023-01-29T00:20:52.973Z,84.72
2023-01-29T00:21:32.857Z,85.10
2023-01-29T00:22:12.916Z,85.07
2023-01-29T00:22:52.890Z,85.07
2023-01-29T00:23:33.245Z,85.53
2023-01-29T00:24:13.903Z,85.35
2023-01-29T00:24:54.007Z,85.23
2023-01-29T00:25:33.871Z,85.18
2023-01-29T00:26:14.918Z,85.02
2023-01-29T00:26:56.868Z,85.07
2023-01-29T00:27:37.202Z,84.83
2023-01-29T00:28:17.853Z,85.34
2023-01-29T00:29:00.440Z,85.28
2023-01-29T00:29:40.910Z,85.80
2023-01-29T00:30:21.309Z,85.62
2023-01-29T00:31:00.907Z,85.67
2023-01-29T00:31:41.008Z,85.38
2023-01-29T00:32:21.910Z,85.01
2023-01-29T00:32:55.540Z,85.52
2023-01-29T00:33:43.882Z,85.46
2023-01-29T00:34:17.739Z,85.56
2023-01-29T00:35:04.869Z,85.68
2023-01-29T00:35:40.976Z,85.69
2023-01-29T00:36:31.850Z,85.38
2023-01-29T00:37:08.827Z,85.83
2023-01-29T00:37:55.867Z,85.37
2023-01-29T00:38:50.825Z,85.16
2023-01-29T00:39:48.256Z,86.11
2023-01-29T00:40:29.871Z,86.45
2023-01-29T00:41:39.439Z,85.76
2023-01-29T00:42:38.816Z,86.27
2023-01-29T00:43:37.761Z,86.48
2023-01-29T00:44:36.882Z,86.03
2023-01-29T00:45:17.905Z,86.73
2023-01-29T00:45:57.869Z,86.16
2023-01-29T00:46:37.918Z,86.53
2023-01-29T00:47:36.868Z,86.68
2023-01-29T00:48:16.882Z,86.72
2023-01-29T00:48:59.555Z,87.20
2023-01-29T00:49:40.845Z,87.06
2023-01-29T00:50:20.838Z,87.20
2023-01-29T00:51:07.872Z,87.10
2023-01-29T00:52:19.859Z,87.16
2023-01-29T00:53:13.814Z,86.71
2023-01-29T00:54:08.855Z,86.99
2023-01-29T00:55:02.809Z,87.04
2023-01-29T00:55:58.904Z,87.05
2023-01-29T00:56:41.858Z,86.83
2023-01-29T00:57:22.880Z,87.40
2023-01-29T00:58:02.847Z,87.57
2023-01-29T00:58:42.882Z,87.31
2023-01-29T00:59:22.814Z,86.96
2023-01-29T01:00:03.590Z,87.16
2023-01-29T01:00:44.912Z,87.28
2023-01-29T01:01:50.887Z,87.36
2023-01-29T01:03:02.808Z,87.31
2023-01-29T01:03:56.865Z,87.59
2023-01-29T01:04:50.866Z,87.37
2023-01-29T01:05:45.841Z,87.83
2023-01-29T01:06:39.807Z,87.72
2023-01-29T01:07:19.821Z,87.66
2023-01-29T01:08:02.952Z,87.79
2023-01-29T01:09:01.802Z,87.15
2023-01-29T01:10:01.618Z,87.98
2023-01-29T01:10:41.795Z,87.95
2023-01-29T01:11:21.885Z,87.53
2023-01-29T01:12:01.814Z,87.94
2023-01-29T01:12:41.871Z,88.29
2023-01-29T01:13:15.878Z,88.48
2023-01-29T01:14:08.780Z,88.54
2023-01-29T01:14:43.255Z,88.55
2023-01-29T01:15:34.799Z,88.18
2023-01-29T01:16:08.895Z,88.42
2023-01-29T01:16:55.839Z,88.87
2023-01-29T01:17:29.849Z,88.55
2023-01-29T01:18:10.837Z,88.47
2023-01-29T01:19:04.825Z,88.75
2023-01-29T01:19:58.788Z,88.64
2023-01-29T01:20:52.777Z,88.47
2023-01-29T01:21:46.782Z,88.35
2023-01-29T01:22:42.791Z,88.87
2023-01-29T01:23:29.832Z,88.88
2023-01-29T01:24:05.758Z,88.91
2023-01-29T01:24:52.802Z,89.55
2023-01-29T01:25:26.884Z,89.17
2023-01-29T01:26:17.779Z,89.69
2023-01-29T01:26:51.851Z,89.26
2023-01-29T01:27:38.832Z,89.63
2023-01-29T01:28:12.840Z,89.65
2023-01-29T01:28:52.811Z,89.33
2023-01-29T01:29:32.831Z,89.28
2023-01-29T01:30:20.816Z,89.38
2023-01-29T01:31:00.979Z,90.00
2023-01-29T01:31:40.844Z,89.87
2023-01-29T01:32:20.903Z,90.01
2023-01-29T01:33:00.787Z,90.25
2023-01-29T01:33:40.817Z,90.18
2023-01-29T01:34:21.805Z,89.98
2023-01-29T01:35:01.818Z,90.31
2023-01-29T01:35:41.762Z,90.68
2023-01-29T01:36:21.898Z,90.41
2023-01-29T01:37:02.792Z,90.61
2023-01-29T01:37:42.850Z,90.68
2023-01-29T01:38:23.766Z,90.93
2023-01-29T01:39:03.846Z,90.50
2023-01-29T01:39:43.789Z,90.80
2023-01-29T01:40:28.862Z,90.62
2023-01-29T01:41:08.760Z,90.96
2023-01-29T01:41:48.815Z,91.16
2023-01-29T01:42:29.778Z,90.97
2023-01-29T01:43:09.834Z,90.84
2023-01-29T01:44:08.772Z,90.92
2023-01-29T01:45:16.791Z,91.26
2023-01-29T01:46:10.838Z,91.62
2023-01-29T01:47:04.835Z,91.70
2023-01-29T01:48:04.733Z,91.65
2023-01-29T01:49:01.757Z,91.69
2023-01-29T01:49:57.764Z,91.50
2023-01-29T01:50:57.785Z,92.07
2023-01-29T01:51:39.998Z,91.75
2023-01-29T01:52:20.780Z,91.61
2023-01-29T01:53:19.884Z,92.23
2023-01-29T01:54:27.760Z,92.45
2023-01-29T01:55:09.978Z,92.18
2023-01-29T01:55:55.890Z,92.08
2023-01-29T01:56:44.831Z,92.53
2023-01-29T01:57:24.870Z,92.33
2023-01-29T01:58:33.764Z,92.33
2023-01-29T01:59:08.810Z,92.53
2023-01-29T02:00:04.734Z,92.50
2023-01-29T02:00:38.924Z,92.25
2023-01-29T02:01:19.783Z,92.06
2023-01-29T02:02:19.599Z,92.42
2023-01-29T02:03:19.786Z,91.98
2023-01-29T02:04:31.730Z,92.34
2023-01-29T02:05:31.766Z,93.02
2023-01-29T02:06:36.843Z,92.12
2023-01-29T02:07:48.778Z,92.45
2023-01-29T02:09:18.811Z,92.99
2023-01-29T02:10:26.101Z,92.43
2023-01-29T02:11:19.745Z,92.88
2023-01-29T02:11:59.756Z,92.65
2023-01-29T02:12:39.804Z,92.75
2023-01-29T02:13:22.717Z,93.03
2023-01-29T02:14:03.782Z,93.49
2023-01-29T02:14:46.737Z,93.00
2023-01-29T02:15:26.810Z,94.26
2023-01-29T02:16:06.769Z,93.29
2023-01-29T02:16:47.765Z,93.52
2023-01-29T02:17:27.786Z,93.85
2023-01-29T02:18:08.246Z,94.20
2023-01-29T02:18:47.733Z,94.13
2023-01-29T02:20:18.109Z,94.58
2023-01-29T02:21:35.757Z,94.65
2023-01-29T02:22:53.774Z,94.22
2023-01-29T02:24:24.758Z,94.65
2023-01-29T02:26:08.743Z,94.25
2023-01-29T02:27:24.728Z,94.00
2023-01-29T02:28:46.774Z,94.29
2023-01-29T02:29:56.863Z,94.53
2023-01-29T02:31:19.815Z,94.36
2023-01-29T02:32:30.757Z,94.61
2023-01-29T02:33:47.723Z,95.04
2023-01-29T02:35:01.608Z,95.10
2023-01-29T02:35:51.744Z,95.46
2023-01-29T02:36:48.847Z,95.73
2023-01-29T02:37:56.724Z,95.86
2023-01-29T02:38:41.804Z,96.07
2023-01-29T02:39:35.712Z,96.20
2023-01-29T02:40:44.753Z,95.89
2023-01-29T02:42:17.731Z,95.39
2023-01-29T02:43:10.762Z,95.69
2023-01-29T02:44:10.704Z,96.05
2023-01-29T02:45:24.712Z,96.25
2023-01-29T02:46:27.763Z,96.01
2023-01-29T02:47:29.699Z,96.29
2023-01-29T02:48:04.204Z,96.83
2023-01-29T02:49:07.758Z,96.29
2023-01-29T02:49:50.805Z,96.17
2023-01-29T02:50:51.757Z,96.71
2023-01-29T02:51:36.932Z,96.30
2023-01-29T02:52:36.728Z,96.56
2023-01-29T02:53:29.747Z,96.70
2023-01-29T02:54:37.737Z,96.39
2023-01-29T02:55:27.762Z,96.98
2023-01-29T02:56:18.745Z,96.39
2023-01-29T02:57:04.762Z,96.44
2023-01-29T02:57:49.730Z,96.68
2023-01-29T02:58:42.011Z,97.17
2023-01-29T02:59:28.685Z,96.69
2023-01-29T03:00:31.755Z,96.26
2023-01-29T03:01:40.747Z,95.97
2023-01-29T03:02:27.762Z,95.88
2023-01-29T03:03:22.682Z,96.38
2023-01-29T03:04:09.775Z,95.97
2023-01-29T03:04:56.683Z,95.88
2023-01-29T03:05:59.125Z,95.08
2023-01-29T03:06:44.722Z,95.53
2023-01-29T03:07:43.964Z,95.81
2023-01-29T03:08:30.663Z,95.62
2023-01-29T03:09:52.768Z,95.73
2023-01-29T03:10:46.660Z,95.55
2023-01-29T03:11:27.720Z,95.64
2023-01-29T03:12:25.877Z,95.88
2023-01-29T03:13:29.722Z,95.88
2023-01-29T03:14:30.663Z,95.84
2023-01-29T03:15:39.015Z,95.87
2023-01-29T03:16:27.789Z,95.95
2023-01-29T03:17:10.403Z,95.19
2023-01-29T03:18:01.670Z,95.94
2023-01-29T03:18:50.895Z,95.53
2023-01-29T03:19:45.633Z,95.26
2023-01-29T03:20:32.627Z,95.71
2023-01-29T03:21:37.697Z,95.55
2023-01-29T03:22:23.306Z,95.32
2023-01-29T03:23:17.704Z,95.82
2023-01-29T03:24:17.245Z,95.54
2023-01-29T03:25:22.670Z,95.21
2023-01-29T03:26:25.155Z,95.82
2023-01-29T03:27:28.713Z,95.89
2023-01-29T03:28:37.731Z,95.29
2023-01-29T03:29:31.354Z,95.17
2023-01-29T03:30:39.666Z,95.52
2023-01-29T03:31:33.473Z,95.69
2023-01-29T03:32:21.678Z,96.21
2023-01-29T03:32:57.079Z,96.22
2023-01-29T03:33:48.660Z,96.15
2023-01-29T03:34:24.704Z,95.70
2023-01-29T03:35:15.681Z,95.65
2023-01-29T03:36:06.742Z,96.46
2023-01-29T03:37:05.645Z,96.49
2023-01-29T03:37:43.819Z,96.25
2023-01-29T03:38:37.680Z,96.01
2023-01-29T03:39:19.658Z,96.22
2023-01-29T03:39:59.671Z,96.01
2023-01-29T03:40:57.653Z,96.22
2023-01-29T03:41:46.197Z,95.89
2023-01-29T03:43:12.646Z,96.28
2023-01-29T03:44:01.680Z,96.22
2023-01-29T03:45:01.651Z,96.41
2023-01-29T03:46:04.754Z,96.29
2023-01-29T03:47:05.625Z,96.44
2023-01-29T03:48:02.032Z,96.62
2023-01-29T03:49:03.649Z,97.04
2023-01-29T03:50:11.654Z,97.20
2023-01-29T03:51:00.730Z,96.21
2023-01-29T03:52:27.634Z,96.77
2023-01-29T03:53:39.688Z,97.18
2023-01-29T03:55:41.658Z,97.31
2023-01-29T03:57:06.616Z,97.14
2023-01-29T03:58:18.605Z,96.47
2023-01-29T03:59:21.613Z,96.75
2023-01-29T04:00:42.702Z,97.23
2023-01-29T04:01:55.616Z,96.52
2023-01-29T04:03:45.622Z,96.92
2023-01-29T04:04:44.647Z,97.18
2023-01-29T04:05:44.618Z,97.34
2023-01-29T04:06:41.618Z,97.54
2023-01-29T04:07:35.638Z,97.36
2023-01-29T04:08:37.606Z,97.81
2023-01-29T04:09:55.583Z,97.38
2023-01-29T04:10:52.648Z,97.43
2023-01-29T04:11:49.603Z,97.98
2023-01-29T04:12:51.678Z,97.19
2023-01-29T04:13:45.620Z,97.61
2023-01-29T04:14:39.611Z,97.73
2023-01-29T04:15:34.594Z,97.48
2023-01-29T04:16:21.654Z,97.56
2023-01-29T04:17:05.660Z,97.41
2023-01-29T04:17:49.602Z,97.68
2023-01-29T04:18:31.636Z,97.82
2023-01-29T04:19:12.618Z,98.28
2023-01-29T04:19:52.698Z,97.80
2023-01-29T04:20:32.605Z,97.77
2023-01-29T04:21:12.760Z,97.63
2023-01-29T04:21:55.593Z,97.30
2023-01-29T04:22:43.288Z,97.32
2023-01-29T04:23:32.595Z,97.32
2023-01-29T04:24:13.659Z,97.64
2023-01-29T04:24:54.588Z,97.63
2023-01-29T04:25:40.663Z,97.26
2023-01-29T04:27:17.667Z,97.21
2023-01-29T04:28:12.635Z,96.92
2023-01-29T04:29:17.579Z,97.09
2023-01-29T04:30:30.710Z,96.84
2023-01-29T04:31:14.690Z,96.54
2023-01-29T04:32:41.633Z,96.95
2023-01-29T04:34:13.641Z,96.35
2023-01-29T04:35:40.603Z,96.49
2023-01-29T04:36:55.599Z,96.59
2023-01-29T04:38:09.616Z,96.52
2023-01-29T04:39:41.586Z,96.33
2023-01-29T04:41:07.595Z,96.37
2023-01-29T04:42:24.570Z,96.31
2023-01-29T04:43:43.577Z,96.23
2023-01-29T04:45:15.600Z,96.08
2023-01-29T04:46:28.627Z,95.61
2023-01-29T04:47:40.651Z,95.79
2023-01-29T04:48:51.605Z,95.49
2023-01-29T04:50:02.546Z,95.46
2023-01-29T04:51:38.714Z,95.27
2023-01-29T04:53:00.558Z,95.87
2023-01-29T04:54:13.615Z,95.48
2023-01-29T04:55:24.536Z,96.02
2023-01-29T04:56:31.571Z,95.92
2023-01-29T04:57:40.726Z,96.34
2023-01-29T04:58:50.569Z,96.08
2023-01-29T04:59:45.610Z,95.50
2023-01-29T05:00:34.610Z,95.53
2023-01-29T05:01:23.571Z,95.25
2023-01-29T05:01:57.613Z,95.69
2023-01-29T05:02:47.643Z,96.19
2023-01-29T05:03:22.758Z,95.58
2023-01-29T05:04:16.523Z,95.70
2023-01-29T05:04:57.631Z,95.78
2023-01-29T05:05:55.558Z,95.62
2023-01-29T05:06:50.566Z,95.59
2023-01-29T05:07:44.748Z,96.39
2023-01-29T05:08:39.537Z,96.19
2023-01-29T05:09:33.558Z,96.17
2023-01-29T05:10:25.556Z,95.88
2023-01-29T05:11:00.627Z,95.46
2023-01-29T05:11:48.569Z,96.17
2023-01-29T05:12:23.757Z,96.26
2023-01-29T05:13:14.547Z,95.74
2023-01-29T05:13:49.614Z,95.92
2023-01-29T05:14:37.555Z,95.73
2023-01-29T05:15:17.614Z,95.83
2023-01-29T05:16:07.589Z,95.99
2023-01-29T05:16:56.595Z,96.22
2023-01-29T05:17:36.515Z,95.90
2023-01-29T05:18:16.609Z,95.99
2023-01-29T05:18:57.536Z,95.76
2023-01-29T05:19:37.617Z,95.78
2023-01-29T05:20:18.854Z,95.50
2023-01-29T05:21:00.639Z,95.66
2023-01-29T05:21:41.254Z,95.42
2023-01-29T05:22:24.579Z,95.32
2023-01-29T05:23:04.524Z,95.16
2023-01-29T05:23:53.215Z,95.39
2023-01-29T05:24:34.546Z,95.55
2023-01-29T05:25:32.774Z,95.50
2023-01-29T05:26:12.562Z,95.63
2023-01-29T05:27:20.527Z,95.18
2023-01-29T05:28:18.517Z,95.53
2023-01-29T05:29:12.557Z,95.49
2023-01-29T05:30:06.518Z,94.90
2023-01-29T05:31:06.654Z,95.04
2023-01-29T05:32:00.596Z,95.38
2023-01-29T05:32:40.556Z,95.13
2023-01-29T05:33:38.583Z,95.06
2023-01-29T05:34:18.509Z,94.71
2023-01-29T05:34:58.582Z,95.17
2023-01-29T05:35:38.499Z,95.24
2023-01-29T05:36:18.566Z,95.68
2023-01-29T05:36:59.502Z,95.07
2023-01-29T05:37:39.597Z,95.41
2023-01-29T05:38:20.570Z,95.37
2023-01-29T05:39:00.579Z,94.96
2023-01-29T05:39:40.508Z,95.00
2023-01-29T05:40:20.571Z,94.87
2023-01-29T05:41:01.502Z,95.08
2023-01-29T05:41:41.586Z,95.44
2023-01-29T05:42:21.489Z,95.19
2023-01-29T05:43:01.609Z,95.36
2023-01-29T05:43:41.506Z,95.20
2023-01-29T05:44:21.591Z,95.01
2023-01-29T05:45:02.535Z,94.93
2023-01-29T05:45:42.624Z,94.57
2023-01-29T05:46:22.519Z,94.69
2023-01-29T05:47:05.471Z,94.64
2023-01-29T05:47:45.514Z,95.30
2023-01-29T05:48:25.546Z,94.94
2023-01-29T05:49:06.517Z,94.67
2023-01-29T05:49:46.565Z,95.03
2023-01-29T05:50:26.513Z,95.01
2023-01-29T05:51:08.552Z,95.71
2023-01-29T05:51:48.524Z,95.29
2023-01-29T05:52:28.579Z,95.19
2023-01-29T05:53:09.509Z,94.25
2023-01-29T05:53:49.575Z,94.75
2023-01-29T05:54:29.520Z,94.79
2023-01-29T05:55:10.580Z,95.14
2023-01-29T05:55:52.496Z,95.12
2023-01-29T05:56:32.572Z,94.86
2023-01-29T05:57:13.514Z,94.86
2023-01-29T05:57:53.555Z,94.53
2023-01-29T05:58:33.507Z,95.18
2023-01-29T05:59:13.543Z,94.81
2023-01-29T05:59:53.515Z,94.71
2023-01-29T06:00:33.583Z,95.32
2023-01-29T06:01:26.482Z,94.91
2023-01-29T06:02:06.945Z,95.50
2023-01-29T06:02:46.529Z,95.56
2023-01-29T06:03:26.558Z,95.51
2023-01-29T06:04:06.498Z,95.49
2023-01-29T06:04:46.593Z,95.53
2023-01-29T06:05:27.524Z,95.79
2023-01-29T06:06:08.546Z,95.66
2023-01-29T06:06:48.468Z,95.43
2023-01-29T06:07:28.577Z,95.13
2023-01-29T06:08:08.465Z,95.13
2023-01-29T06:08:48.519Z,95.65
2023-01-29T06:09:28.472Z,95.78
2023-01-29T06:10:03.571Z,95.58
2023-01-29T06:10:50.502Z,95.93
2023-01-29T06:11:24.293Z,96.24
2023-01-29T06:12:12.497Z,96.48
2023-01-29T06:12:46.277Z,96.09
2023-01-29T06:13:33.492Z,96.22
2023-01-29T06:14:07.353Z,96.36
2023-01-29T06:14:54.455Z,96.33
2023-01-29T06:15:28.186Z,96.05
2023-01-29T06:16:20.543Z,96.43
2023-01-29T06:16:54.266Z,96.89
2023-01-29T06:17:41.495Z,96.23
2023-01-29T06:18:15.344Z,96.35
2023-01-29T06:19:02.479Z,95.85
2023-01-29T06:19:36.227Z,96.25
2023-01-29T06:20:24.482Z,96.30
2023-01-29T06:21:02.556Z,96.51
2023-01-29T06:21:42.501Z,96.52
2023-01-29T06:22:16.514Z,96.64
2023-01-29T06:22:50.145Z,96.91
2023-01-29T06:23:30.501Z,96.79
2023-01-29T06:24:04.553Z,96.88
2023-01-29T06:24:38.207Z,96.89
2023-01-29T06:25:25.444Z,96.19
2023-01-29T06:25:59.511Z,96.81
2023-01-29T06:26:46.476Z,96.58
2023-01-29T06:27:20.605Z,96.71
2023-01-29T06:28:07.442Z,96.52
2023-01-29T06:28:41.574Z,96.81
2023-01-29T06:29:28.465Z,96.60
2023-01-29T06:30:02.522Z,96.41
2023-01-29T06:30:49.488Z,96.65
2023-01-29T06:31:37.303Z,96.30
2023-01-29T06:32:18.490Z,96.42
2023-01-29T06:33:03.511Z,96.28
2023-01-29T06:33:43.475Z,96.44
2023-01-29T06:34:23.484Z,96.42
2023-01-29T06:35:04.451Z,96.05
2023-01-29T06:35:44.488Z,96.34
2023-01-29T06:36:24.450Z,96.43
2023-01-29T06:37:04.551Z,96.71
2023-01-29T06:37:44.475Z,96.91
2023-01-29T06:38:24.561Z,97.04
2023-01-29T06:39:05.473Z,96.44
2023-01-29T06:39:45.531Z,96.51
2023-01-29T06:40:26.419Z,96.16
2023-01-29T06:41:06.473Z,96.58
2023-01-29T06:41:46.456Z,96.48
2023-01-29T06:42:28.111Z,96.57
2023-01-29T06:43:09.460Z,96.31
2023-01-29T06:43:53.542Z,96.40
2023-01-29T06:44:34.447Z,96.78
2023-01-29T06:45:15.525Z,96.36
2023-01-29T06:46:00.566Z,96.58
2023-01-29T06:46:40.473Z,96.35
2023-01-29T06:47:21.430Z,96.74
2023-01-29T06:48:02.517Z,96.33
2023-01-29T06:48:42.448Z,96.31
2023-01-29T06:49:23.174Z,96.46
2023-01-29T06:50:03.435Z,96.97
2023-01-29T06:50:43.516Z,96.78
2023-01-29T06:51:24.572Z,96.54
2023-01-29T06:52:04.544Z,96.71
2023-01-29T06:52:44.437Z,96.13
2023-01-29T06:53:24.932Z,96.44
2023-01-29T06:54:05.479Z,96.68
2023-01-29T06:54:45.566Z,97.04
2023-01-29T06:55:26.464Z,96.52
2023-01-29T06:56:06.487Z,96.34
2023-01-29T06:56:46.433Z,96.62
2023-01-29T06:57:26.503Z,96.98
2023-01-29T06:58:07.511Z,97.35
2023-01-29T06:58:47.524Z,96.73
2023-01-29T06:59:28.450Z,96.67
2023-01-29T07:00:09.266Z,96.63
2023-01-29T07:00:50.506Z,96.49
2023-01-29T07:01:36.059Z,97.12
2023-01-29T07:02:17.495Z,97.20
2023-01-29T07:02:57.483Z,97.49
2023-01-29T07:03:38.419Z,97.18
2023-01-29T07:04:18.482Z,96.98
2023-01-29T07:04:58.486Z,96.89
2023-01-29T07:05:41.476Z,97.14
2023-01-29T07:06:21.419Z,97.24
2023-01-29T07:07:01.502Z,97.47
2023-01-29T07:07:43.412Z,96.62
2023-01-29T07:08:23.487Z,96.65
2023-01-29T07:09:03.436Z,96.92
2023-01-29T07:09:43.463Z,96.66
2023-01-29T07:10:24.473Z,97.19
2023-01-29T07:11:08.483Z,97.17
2023-01-29T07:11:49.415Z,97.29
2023-01-29T07:12:29.487Z,97.36
2023-01-29T07:13:09.421Z,97.37
2023-01-29T07:13:49.477Z,97.39
2023-01-29T07:14:29.433Z,97.94
2023-01-29T07:15:09.528Z,97.46
2023-01-29T07:15:51.431Z,97.38
2023-01-29T07:16:31.620Z,97.58
2023-01-29T07:17:12.427Z,97.53
2023-01-29T07:18:12.101Z,97.28
2023-01-29T07:18:52.393Z,97.17
2023-01-29T07:19:32.455Z,97.04
2023-01-29T07:20:14.809Z,96.63
2023-01-29T07:21:02.380Z,97.00
2023-01-29T07:21:56.409Z,96.78
2023-01-29T07:22:50.476Z,97.33
2023-01-29T07:23:44.431Z,97.52
2023-01-29T07:24:38.445Z,97.92
2023-01-29T07:25:32.362Z,97.86
2023-01-29T07:26:19.408Z,97.98
2023-01-29T07:26:53.706Z,97.86
2023-01-29T07:27:40.377Z,97.93
2023-01-29T07:28:14.485Z,97.66
2023-01-29T07:29:01.421Z,98.10
2023-01-29T07:29:35.489Z,97.91
2023-01-29T07:30:23.388Z,97.66
2023-01-29T07:31:01.513Z,97.95
2023-01-29T07:31:41.505Z,97.26
2023-01-29T07:32:21.502Z,97.78
2023-01-29T07:33:01.354Z,97.42
2023-01-29T07:33:41.502Z,97.69
2023-01-29T07:34:21.390Z,97.63
2023-01-29T07:35:02.457Z,97.65
2023-01-29T07:35:47.400Z,97.85
2023-01-29T07:36:28.170Z,97.91
2023-01-29T07:37:09.400Z,98.19
2023-01-29T07:37:49.485Z,98.76
2023-01-29T07:38:29.558Z,98.60
2023-01-29T07:39:10.404Z,97.99
2023-01-29T07:39:51.372Z,98.34
2023-01-29T07:40:31.434Z,98.65
2023-01-29T07:41:12.387Z,98.34
2023-01-29T07:41:52.431Z,98.49
2023-01-29T07:42:32.379Z,98.56
2023-01-29T07:43:14.469Z,98.25
2023-01-29T07:43:54.362Z,98.88
2023-01-29T07:44:34.390Z,97.97
2023-01-29T07:45:15.347Z,97.86
2023-01-29T07:45:55.594Z,97.82
2023-01-29T07:46:36.370Z,98.12
2023-01-29T07:47:17.246Z,97.85
2023-01-29T07:48:01.383Z,98.19
2023-01-29T07:48:42.411Z,97.78
2023-01-29T07:49:23.360Z,98.12
2023-01-29T07:50:03.410Z,97.78
2023-01-29T07:50:44.385Z,98.18
2023-01-29T07:51:24.446Z,98.09
2023-01-29T07:52:04.353Z,98.38
2023-01-29T07:52:44.500Z,99.08
2023-01-29T07:53:24.369Z,98.42
2023-01-29T07:54:04.428Z,98.90
2023-01-29T07:54:45.374Z,99.12
2023-01-29T07:55:25.443Z,98.76
2023-01-29T07:56:06.365Z,99.46
2023-01-29T07:56:46.629Z,99.02
2023-01-29T07:57:26.365Z,98.98
2023-01-29T07:58:09.405Z,98.71
2023-01-29T07:58:50.357Z,98.71
2023-01-29T07:59:30.406Z,98.84
2023-01-29T08:00:11.346Z,99.50
2023-01-29T08:00:51.490Z,99.63
2023-01-29T08:01:31.456Z,99.47
2023-01-29T08:02:11.448Z,99.35
2023-01-29T08:02:52.355Z,99.68
2023-01-29T08:03:32.413Z,100.00
2023-01-29T08:04:12.379Z,99.18
2023-01-29T08:04:52.445Z,99.66
2023-01-29T08:05:32.317Z,99.72
2023-01-29T08:06:13.493Z,99.04
2023-01-29T08:06:54.331Z,99.11
2023-01-29T08:07:34.426Z,99.35
2023-01-29T08:08:14.378Z,99.00
2023-01-29T08:08:55.743Z,98.92
2023-01-29T08:09:35.370Z,99.17
2023-01-29T08:10:16.727Z,98.76
2023-01-29T08:10:58.404Z,98.69
2023-01-29T08:11:38.760Z,98.87
2023-01-29T08:12:18.335Z,98.84
2023-01-29T08:13:07.369Z,98.29
2023-01-29T08:13:47.356Z,99.00
2023-01-29T08:14:27.407Z,98.36
2023-01-29T08:15:08.398Z,99.08
2023-01-29T08:15:51.420Z,98.57
2023-01-29T08:16:31.408Z,98.80
2023-01-29T08:17:11.397Z,98.62
2023-01-29T08:17:57.748Z,98.58
2023-01-29T08:18:38.448Z,98.73
2023-01-29T08:19:19.318Z,98.94
2023-01-29T08:19:59.407Z,98.45
2023-01-29T08:20:39.338Z,98.29
2023-01-29T08:21:19.418Z,98.78
2023-01-29T08:21:59.337Z,98.36
2023-01-29T08:22:39.413Z,98.92
2023-01-29T08:23:22.341Z,98.30
2023-01-29T08:24:02.428Z,98.25
2023-01-29T08:24:53.734Z,97.68
2023-01-29T08:25:49.417Z,98.01
2023-01-29T08:26:43.414Z,98.20
2023-01-29T08:27:37.334Z,97.74
2023-01-29T08:28:31.348Z,98.27
2023-01-29T08:29:26.330Z,98.65
2023-01-29T08:30:22.386Z,98.49
2023-01-29T08:31:09.384Z,98.88
2023-01-29T08:31:43.431Z,99.07
2023-01-29T08:32:30.345Z,98.97
2023-01-29T08:33:04.407Z,99.11
2023-01-29T08:33:51.319Z,99.46
2023-01-29T08:34:25.407Z,99.19
2023-01-29T08:35:12.329Z,99.43
2023-01-29T08:35:46.418Z,99.75
2023-01-29T08:36:33.372Z,99.43
2023-01-29T08:37:07.405Z,99.38
2023-01-29T08:38:05.326Z,99.27
2023-01-29T08:38:39.420Z,99.30
2023-01-29T08:39:26.336Z,100.00
2023-01-29T08:40:00.488Z,99.77
2023-01-29T08:40:47.347Z,100.00
2023-01-29T08:41:21.419Z,99.63
2023-01-29T08:42:01.355Z,99.42
2023-01-29T08:42:41.985Z,99.58
2023-01-29T08:43:23.306Z,99.00
2023-01-29T08:44:04.420Z,99.63
2023-01-29T08:44:44.303Z,99.35
2023-01-29T08:45:24.395Z,99.33
2023-01-29T08:46:04.368Z,99.03
2023-01-29T08:46:44.461Z,99.30
2023-01-29T08:47:25.301Z,99.18
2023-01-29T08:48:05.386Z,99.69
2023-01-29T08:48:46.373Z,99.03
2023-01-29T08:49:26.490Z,99.45
2023-01-29T08:50:06.307Z,99.33
2023-01-29T08:50:46.353Z,99.33
2023-01-29T08:51:27.273Z,99.26
2023-01-29T08:52:07.371Z,99.48
2023-01-29T08:52:47.317Z,99.25
2023-01-29T08:53:27.387Z,99.88
2023-01-29T08:54:07.337Z,99.85
2023-01-29T08:55:01.323Z,99.33
2023-01-29T08:55:55.282Z,99.62
2023-01-29T08:56:49.339Z,99.96
2023-01-29T08:57:43.334Z,99.31
2023-01-29T08:58:23.267Z,99.69
2023-01-29T08:59:03.378Z,99.35
2023-01-29T08:59:44.369Z,99.44
2023-01-29T09:00:25.375Z,99.85
2023-01-29T09:01:17.332Z,99.96
2023-01-29T09:01:57.355Z,99.82
2023-01-29T09:02:37.307Z,99.72
2023-01-29T09:03:17.359Z,99.93
2023-01-29T09:03:59.297Z,99.68
2023-01-29T09:04:39.329Z,100.00
2023-01-29T09:05:19.701Z,100.00
2023-01-29T09:06:00.338Z,100.00
2023-01-29T09:06:40.286Z,100.00
2023-01-29T09:07:21.811Z,100.00
2023-01-29T09:08:06.308Z,100.00
2023-01-29T09:08:47.921Z,100.00
2023-01-29T09:09:28.352Z,100.00
2023-01-29T09:10:08.302Z,100.00
2023-01-29T09:10:48.253Z,100.00
2023-01-29T09:11:28.295Z,100.00
2023-01-29T09:12:09.293Z,100.00
2023-01-29T09:12:49.309Z,100.00
2023-01-29T09:13:29.301Z,100.00
2023-01-29T09:14:09.805Z,100.00
2023-01-29T09:14:50.261Z,99.82
2023-01-29T09:15:30.333Z,100.00
2023-01-29T09:16:11.285Z,99.92
2023-01-29T09:16:51.334Z,100.00
2023-01-29T09:17:31.268Z,100.00
2023-01-29T09:18:12.362Z,100.00
2023-01-29T09:18:52.289Z,100.00
2023-01-29T09:19:32.357Z,100.00
2023-01-29T09:20:13.297Z,100.00
2023-01-29T09:20:53.449Z,100.00
2023-01-29T09:21:33.289Z,100.00
2023-01-29T09:22:13.345Z,100.00
2023-01-29T09:22:54.277Z,100.00
2023-01-29T09:23:35.333Z,100.00
2023-01-29T09:24:17.266Z,100.00
2023-01-29T09:24:57.378Z,100.00
2023-01-29T09:25:37.317Z,100.00
2023-01-29T09:26:17.349Z,100.00
2023-01-29T09:26:57.274Z,100.00
2023-01-29T09:27:37.330Z,100.00
2023-01-29T09:28:18.266Z,100.00
2023-01-29T09:28:58.367Z,100.00
2023-01-29T09:29:38.267Z,100.00
2023-01-29T09:30:19.307Z,100.00
2023-01-29T09:31:00.373Z,100.00
2023-01-29T09:31:40.380Z,100.00
2023-01-29T09:32:49.643Z,100.00
2023-01-29T09:33:21.348Z,100.00
2023-01-29T09:34:01.278Z,100.00
2023-01-29T09:34:41.302Z,100.00
2023-01-29T09:35:21.247Z,100.00
2023-01-29T09:36:08.312Z,100.00
2023-01-29T09:37:02.317Z,100.00
2023-01-29T09:37:56.315Z,100.00
2023-01-29T09:38:50.306Z,100.00
2023-01-29T09:39:44.291Z,100.00
2023-01-29T09:40:45.249Z,100.00
2023-01-29T09:42:02.268Z,100.00
2023-01-29T09:42:48.599Z,100.00
2023-01-29T09:44:02.230Z,100.00
2023-01-29T09:45:07.357Z,100.00
2023-01-29T09:46:06.332Z,100.00
2023-01-29T09:46:53.362Z,100.00
2023-01-29T09:47:34.262Z,100.00
2023-01-29T09:48:18.357Z,100.00
2023-01-29T09:49:17.256Z,100.00
2023-01-29T09:50:06.290Z,100.00
2023-01-29T09:50:50.298Z,100.00
2023-01-29T09:51:38.305Z,100.00
2023-01-29T09:52:29.292Z,100.00
2023-01-29T09:53:31.263Z,100.00
2023-01-29T09:54:22.333Z,100.00
2023-01-29T09:55:39.242Z,100.00
2023-01-29T09:56:28.711Z,100.00
2023-01-29T09:57:17.221Z,100.00
2023-01-29T09:58:06.325Z,100.00
2023-01-29T09:58:53.255Z,100.00
2023-01-29T09:59:30.260Z,100.00
2023-01-29T10:00:43.267Z,100.00
2023-01-29T10:01:43.342Z,100.00
2023-01-29T10:02:53.190Z,100.00
2023-01-29T10:04:01.237Z,100.00
2023-01-29T10:05:31.240Z,100.00
2023-01-29T10:06:59.243Z,100.00
2023-01-29T10:08:42.230Z,100.00
2023-01-29T10:10:11.233Z,100.00
2023-01-29T10:11:42.275Z,100.00
2023-01-29T10:12:45.221Z,100.00
2023-01-29T10:13:59.290Z,100.00
2023-01-29T10:15:06.232Z,100.00
2023-01-29T10:16:35.258Z,100.00
2023-01-29T10:17:51.384Z,100.00